sensor_id;sensor_type;location;lat;lon;timestamp;P1;durP1;ratioP1;P2;durP2;ratioP2
14907;SDS011;7545;52.092;7.006;2023-09-18T00:00:20;10.20;;;6.72;;
14907;SDS011;7545;52.092;7.006;2023-09-18T00:02:47;9.07;;;7.75;;
14907;SDS011;7545;52.092;7.006;2023-09-18T00:05:13;9.13;;;7.03;;
14907;SDS011;7545;52.092;7.006;2023-09-18T00:07:44;11.05;;;7.50;;
14907;SDS011;7545;52.092;7.006;2023-09-18T00:10:13;7.32;;;6.55;;
14907;SDS011;7545;52.092;7.006;2023-09-18T00:12:39;8.75;;;7.32;;
14907;SDS011;7545;52.092;7.006;2023-09-18T00:15:05;6.78;;;6.07;;
14907;SDS011;7545;52.092;7.006;2023-09-18T00:17:34;7.20;;;6.50;;
14907;SDS011;7545;52.092;7.006;2023-09-18T00:20:00;9.27;;;7.45;;
14907;SDS011;7545;52.092;7.006;2023-09-18T00:22:26;8.43;;;6.50;;
14907;SDS011;7545;52.092;7.006;2023-09-18T00:24:51;8.93;;;6.75;;
14907;SDS011;7545;52.092;7.006;2023-09-18T00:27:17;7.32;;;6.28;;
14907;SDS011;7545;52.092;7.006;2023-09-18T00:29:43;10.35;;;6.97;;
14907;SDS011;7545;52.092;7.006;2023-09-18T00:32:08;10.88;;;6.25;;
14907;SDS011;7545;52.092;7.006;2023-09-18T00:34:34;10.45;;;6.57;;
14907;SDS011;7545;52.092;7.006;2023-09-18T00:36:59;11.82;;;6.70;;
14907;SDS011;7545;52.092;7.006;2023-09-18T00:39:25;8.48;;;6.22;;
14907;SDS011;7545;52.092;7.006;2023-09-18T00:41:51;7.57;;;6.15;;
14907;SDS011;7545;52.092;7.006;2023-09-18T00:44:21;11.95;;;6.93;;
14907;SDS011;7545;52.092;7.006;2023-09-18T00:46:51;11.68;;;6.47;;
14907;SDS011;7545;52.092;7.006;2023-09-18T00:49:17;13.77;;;7.63;;
14907;SDS011;7545;52.092;7.006;2023-09-18T00:51:43;8.00;;;6.60;;
14907;SDS011;7545;52.092;7.006;2023-09-18T00:54:10;7.15;;;6.38;;
14907;SDS011;7545;52.092;7.006;2023-09-18T00:56:36;7.38;;;6.30;;
14907;SDS011;7545;52.092;7.006;2023-09-18T00:59:02;11.90;;;7.28;;
14907;SDS011;7545;52.092;7.006;2023-09-18T01:01:28;9.63;;;6.47;;
14907;SDS011;7545;52.092;7.006;2023-09-18T01:03:54;10.15;;;6.40;;
14907;SDS011;7545;52.092;7.006;2023-09-18T01:06:24;12.60;;;6.55;;
14907;SDS011;7545;52.092;7.006;2023-09-18T01:08:52;8.60;;;6.18;;
14907;SDS011;7545;52.092;7.006;2023-09-18T01:11:20;8.80;;;5.95;;
14907;SDS011;7545;52.092;7.006;2023-09-18T01:16:55;8.40;;;6.13;;
14907;SDS011;7545;52.092;7.006;2023-09-18T01:22:20;9.55;;;6.07;;
14907;SDS011;7545;52.092;7.006;2023-09-18T01:24:47;8.05;;;5.47;;
14907;SDS011;7545;52.092;7.006;2023-09-18T01:27:15;10.80;;;6.35;;
14907;SDS011;7545;52.092;7.006;2023-09-18T01:29:42;8.20;;;6.10;;
14907;SDS011;7545;52.092;7.006;2023-09-18T01:32:08;6.93;;;5.93;;
14907;SDS011;7545;52.092;7.006;2023-09-18T01:34:35;6.55;;;5.75;;
14907;SDS011;7545;52.092;7.006;2023-09-18T01:37:04;6.80;;;6.20;;
14907;SDS011;7545;52.092;7.006;2023-09-18T01:39:31;8.98;;;5.75;;
14907;SDS011;7545;52.092;7.006;2023-09-18T01:41:59;8.35;;;6.20;;
14907;SDS011;7545;52.092;7.006;2023-09-18T01:44:26;9.05;;;6.32;;
14907;SDS011;7545;52.092;7.006;2023-09-18T01:46:52;7.60;;;5.70;;
14907;SDS011;7545;52.092;7.006;2023-09-18T01:49:31;13.15;;;6.25;;
14907;SDS011;7545;52.092;7.006;2023-09-18T01:51:58;6.80;;;5.85;;
14907;SDS011;7545;52.092;7.006;2023-09-18T01:54:24;7.78;;;5.78;;
14907;SDS011;7545;52.092;7.006;2023-09-18T01:56:50;9.70;;;6.95;;
14907;SDS011;7545;52.092;7.006;2023-09-18T01:59:17;9.02;;;6.03;;
14907;SDS011;7545;52.092;7.006;2023-09-18T02:01:43;6.47;;;5.57;;
14907;SDS011;7545;52.092;7.006;2023-09-18T02:04:09;8.00;;;6.00;;
14907;SDS011;7545;52.092;7.006;2023-09-18T02:06:35;7.70;;;6.55;;
14907;SDS011;7545;52.092;7.006;2023-09-18T02:09:00;6.63;;;5.57;;
14907;SDS011;7545;52.092;7.006;2023-09-18T02:11:26;6.68;;;5.97;;
14907;SDS011;7545;52.092;7.006;2023-09-18T02:13:52;12.02;;;6.43;;
14907;SDS011;7545;52.092;7.006;2023-09-18T02:16:18;10.40;;;5.63;;
14907;SDS011;7545;52.092;7.006;2023-09-18T02:18:46;6.95;;;5.28;;
14907;SDS011;7545;52.092;7.006;2023-09-18T02:21:18;7.68;;;5.70;;
14907;SDS011;7545;52.092;7.006;2023-09-18T02:23:50;7.78;;;6.30;;
14907;SDS011;7545;52.092;7.006;2023-09-18T02:26:19;10.55;;;5.95;;
14907;SDS011;7545;52.092;7.006;2023-09-18T02:28:45;11.68;;;6.00;;
14907;SDS011;7545;52.092;7.006;2023-09-18T02:31:11;7.03;;;6.32;;
14907;SDS011;7545;52.092;7.006;2023-09-18T02:33:37;7.93;;;6.00;;
14907;SDS011;7545;52.092;7.006;2023-09-18T02:36:03;8.00;;;4.97;;
14907;SDS011;7545;52.092;7.006;2023-09-18T02:38:29;8.45;;;4.75;;
14907;SDS011;7545;52.092;7.006;2023-09-18T02:40:57;8.00;;;5.65;;
14907;SDS011;7545;52.092;7.006;2023-09-18T02:43:23;7.10;;;5.10;;
14907;SDS011;7545;52.092;7.006;2023-09-18T02:45:49;11.77;;;4.78;;
14907;SDS011;7545;52.092;7.006;2023-09-18T02:48:15;8.85;;;5.68;;
14907;SDS011;7545;52.092;7.006;2023-09-18T02:50:41;8.88;;;5.70;;
14907;SDS011;7545;52.092;7.006;2023-09-18T02:53:07;9.85;;;4.90;;
14907;SDS011;7545;52.092;7.006;2023-09-18T02:55:36;8.32;;;4.80;;
14907;SDS011;7545;52.092;7.006;2023-09-18T02:58:02;8.48;;;5.18;;
14907;SDS011;7545;52.092;7.006;2023-09-18T03:00:28;10.80;;;5.45;;
14907;SDS011;7545;52.092;7.006;2023-09-18T03:02:53;7.88;;;4.65;;
14907;SDS011;7545;52.092;7.006;2023-09-18T03:05:19;10.25;;;4.70;;
14907;SDS011;7545;52.092;7.006;2023-09-18T03:07:45;7.20;;;4.60;;
14907;SDS011;7545;52.092;7.006;2023-09-18T03:10:10;7.15;;;4.15;;
14907;SDS011;7545;52.092;7.006;2023-09-18T03:12:39;9.10;;;4.30;;
14907;SDS011;7545;52.092;7.006;2023-09-18T03:15:05;9.23;;;5.03;;
14907;SDS011;7545;52.092;7.006;2023-09-18T03:17:31;6.88;;;4.40;;
14907;SDS011;7545;52.092;7.006;2023-09-18T03:19:57;8.35;;;4.85;;
14907;SDS011;7545;52.092;7.006;2023-09-18T03:22:22;6.88;;;5.00;;
14907;SDS011;7545;52.092;7.006;2023-09-18T03:24:48;7.30;;;4.95;;
14907;SDS011;7545;52.092;7.006;2023-09-18T03:27:14;9.70;;;4.47;;
14907;SDS011;7545;52.092;7.006;2023-09-18T03:29:39;6.80;;;4.28;;
14907;SDS011;7545;52.092;7.006;2023-09-18T03:32:05;11.45;;;4.28;;
14907;SDS011;7545;52.092;7.006;2023-09-18T03:34:31;7.03;;;4.40;;
14907;SDS011;7545;52.092;7.006;2023-09-18T03:36:56;4.82;;;4.32;;
14907;SDS011;7545;52.092;7.006;2023-09-18T03:39:22;4.95;;;3.90;;
14907;SDS011;7545;52.092;7.006;2023-09-18T03:41:48;6.57;;;3.65;;
14907;SDS011;7545;52.092;7.006;2023-09-18T03:44:13;4.97;;;4.30;;
14907;SDS011;7545;52.092;7.006;2023-09-18T03:46:39;4.93;;;4.10;;
14907;SDS011;7545;52.092;7.006;2023-09-18T03:49:05;6.53;;;4.03;;
14907;SDS011;7545;52.092;7.006;2023-09-18T03:51:31;8.73;;;5.00;;
14907;SDS011;7545;52.092;7.006;2023-09-18T03:53:57;6.80;;;4.07;;
14907;SDS011;7545;52.092;7.006;2023-09-18T03:56:22;5.60;;;3.90;;
14907;SDS011;7545;52.092;7.006;2023-09-18T03:58:48;5.05;;;4.07;;
14907;SDS011;7545;52.092;7.006;2023-09-18T04:01:16;4.90;;;3.75;;
14907;SDS011;7545;52.092;7.006;2023-09-18T04:03:42;6.43;;;4.10;;
14907;SDS011;7545;52.092;7.006;2023-09-18T04:06:08;5.40;;;4.03;;
14907;SDS011;7545;52.092;7.006;2023-09-18T04:08:33;5.10;;;4.00;;
14907;SDS011;7545;52.092;7.006;2023-09-18T04:10:59;5.70;;;4.32;;
14907;SDS011;7545;52.092;7.006;2023-09-18T04:13:25;9.10;;;4.95;;
14907;SDS011;7545;52.092;7.006;2023-09-18T04:15:52;4.82;;;3.65;;
14907;SDS011;7545;52.092;7.006;2023-09-18T04:18:22;5.60;;;3.95;;
14907;SDS011;7545;52.092;7.006;2023-09-18T04:20:48;9.13;;;5.25;;
14907;SDS011;7545;52.092;7.006;2023-09-18T04:23:17;6.40;;;4.00;;
14907;SDS011;7545;52.092;7.006;2023-09-18T04:25:44;5.30;;;3.80;;
14907;SDS011;7545;52.092;7.006;2023-09-18T04:28:17;7.88;;;3.83;;
14907;SDS011;7545;52.092;7.006;2023-09-18T04:30:44;6.25;;;4.20;;
14907;SDS011;7545;52.092;7.006;2023-09-18T04:33:10;5.55;;;4.10;;
14907;SDS011;7545;52.092;7.006;2023-09-18T04:35:37;8.15;;;4.32;;
14907;SDS011;7545;52.092;7.006;2023-09-18T04:38:04;5.72;;;4.43;;
14907;SDS011;7545;52.092;7.006;2023-09-18T04:40:31;7.63;;;3.90;;
14907;SDS011;7545;52.092;7.006;2023-09-18T04:43:00;5.70;;;3.67;;
14907;SDS011;7545;52.092;7.006;2023-09-18T04:45:27;5.95;;;3.47;;
14907;SDS011;7545;52.092;7.006;2023-09-18T04:47:52;8.18;;;4.05;;
14907;SDS011;7545;52.092;7.006;2023-09-18T04:50:19;7.10;;;3.92;;
14907;SDS011;7545;52.092;7.006;2023-09-18T04:52:45;8.35;;;4.05;;
14907;SDS011;7545;52.092;7.006;2023-09-18T04:55:10;6.82;;;3.70;;
14907;SDS011;7545;52.092;7.006;2023-09-18T04:57:37;4.38;;;3.92;;
14907;SDS011;7545;52.092;7.006;2023-09-18T05:00:03;5.18;;;4.22;;
14907;SDS011;7545;52.092;7.006;2023-09-18T05:02:37;5.70;;;3.67;;
14907;SDS011;7545;52.092;7.006;2023-09-18T05:05:03;5.53;;;3.92;;
14907;SDS011;7545;52.092;7.006;2023-09-18T05:07:29;6.40;;;3.80;;
14907;SDS011;7545;52.092;7.006;2023-09-18T05:09:56;6.53;;;3.85;;
14907;SDS011;7545;52.092;7.006;2023-09-18T05:12:22;7.20;;;3.80;;
14907;SDS011;7545;52.092;7.006;2023-09-18T05:14:48;7.68;;;4.10;;
14907;SDS011;7545;52.092;7.006;2023-09-18T05:17:15;6.03;;;3.35;;
14907;SDS011;7545;52.092;7.006;2023-09-18T05:19:41;6.85;;;3.80;;
14907;SDS011;7545;52.092;7.006;2023-09-18T05:22:08;11.68;;;3.85;;
14907;SDS011;7545;52.092;7.006;2023-09-18T05:24:37;5.82;;;3.05;;
14907;SDS011;7545;52.092;7.006;2023-09-18T05:27:03;7.25;;;4.00;;
14907;SDS011;7545;52.092;7.006;2023-09-18T05:29:31;5.30;;;3.95;;
14907;SDS011;7545;52.092;7.006;2023-09-18T05:31:57;8.98;;;4.25;;
14907;SDS011;7545;52.092;7.006;2023-09-18T05:34:23;11.50;;;4.43;;
14907;SDS011;7545;52.092;7.006;2023-09-18T05:36:48;6.50;;;4.70;;
14907;SDS011;7545;52.092;7.006;2023-09-18T05:39:15;7.30;;;3.95;;
14907;SDS011;7545;52.092;7.006;2023-09-18T05:41:40;6.15;;;4.80;;
14907;SDS011;7545;52.092;7.006;2023-09-18T05:44:06;7.85;;;3.95;;
14907;SDS011;7545;52.092;7.006;2023-09-18T05:46:35;9.65;;;5.28;;
14907;SDS011;7545;52.092;7.006;2023-09-18T05:49:01;7.38;;;5.53;;
14907;SDS011;7545;52.092;7.006;2023-09-18T05:51:27;7.50;;;4.68;;
14907;SDS011;7545;52.092;7.006;2023-09-18T05:53:55;6.70;;;4.55;;
14907;SDS011;7545;52.092;7.006;2023-09-18T05:56:20;6.85;;;4.07;;
14907;SDS011;7545;52.092;7.006;2023-09-18T05:58:46;5.35;;;4.15;;
14907;SDS011;7545;52.092;7.006;2023-09-18T06:01:11;8.18;;;4.10;;
14907;SDS011;7545;52.092;7.006;2023-09-18T06:03:37;7.00;;;4.95;;
14907;SDS011;7545;52.092;7.006;2023-09-18T06:06:03;7.18;;;4.13;;
14907;SDS011;7545;52.092;7.006;2023-09-18T06:08:30;6.40;;;3.58;;
14907;SDS011;7545;52.092;7.006;2023-09-18T06:10:56;9.85;;;3.83;;
14907;SDS011;7545;52.092;7.006;2023-09-18T06:13:24;6.53;;;4.22;;
14907;SDS011;7545;52.092;7.006;2023-09-18T06:15:50;5.80;;;3.47;;
14907;SDS011;7545;52.092;7.006;2023-09-18T06:18:17;6.78;;;3.42;;
14907;SDS011;7545;52.092;7.006;2023-09-18T06:20:45;6.32;;;3.80;;
14907;SDS011;7545;52.092;7.006;2023-09-18T06:23:11;6.22;;;4.03;;
14907;SDS011;7545;52.092;7.006;2023-09-18T06:25:37;7.03;;;4.82;;
14907;SDS011;7545;52.092;7.006;2023-09-18T06:28:03;5.97;;;3.90;;
14907;SDS011;7545;52.092;7.006;2023-09-18T06:30:30;7.80;;;4.13;;
14907;SDS011;7545;52.092;7.006;2023-09-18T06:32:58;10.40;;;4.60;;
14907;SDS011;7545;52.092;7.006;2023-09-18T06:35:24;7.30;;;4.00;;
14907;SDS011;7545;52.092;7.006;2023-09-18T06:37:50;7.10;;;4.22;;
14907;SDS011;7545;52.092;7.006;2023-09-18T06:40:16;9.35;;;4.68;;
14907;SDS011;7545;52.092;7.006;2023-09-18T06:42:42;8.02;;;4.07;;
14907;SDS011;7545;52.092;7.006;2023-09-18T06:45:08;9.82;;;4.15;;
14907;SDS011;7545;52.092;7.006;2023-09-18T06:47:34;5.72;;;4.20;;
14907;SDS011;7545;52.092;7.006;2023-09-18T06:49:59;7.45;;;4.05;;
14907;SDS011;7545;52.092;7.006;2023-09-18T06:52:25;9.82;;;4.68;;
14907;SDS011;7545;52.092;7.006;2023-09-18T06:54:52;8.23;;;4.97;;
14907;SDS011;7545;52.092;7.006;2023-09-18T06:57:18;11.18;;;5.07;;
14907;SDS011;7545;52.092;7.006;2023-09-18T06:59:46;11.10;;;4.53;;
14907;SDS011;7545;52.092;7.006;2023-09-18T07:02:12;4.88;;;3.53;;
14907;SDS011;7545;52.092;7.006;2023-09-18T07:04:40;6.10;;;4.00;;
14907;SDS011;7545;52.092;7.006;2023-09-18T07:07:10;5.70;;;4.13;;
14907;SDS011;7545;52.092;7.006;2023-09-18T07:09:37;6.40;;;3.75;;
14907;SDS011;7545;52.092;7.006;2023-09-18T07:12:03;10.15;;;3.97;;
14907;SDS011;7545;52.092;7.006;2023-09-18T07:14:29;9.15;;;3.97;;
14907;SDS011;7545;52.092;7.006;2023-09-18T07:16:55;4.47;;;3.13;;
14907;SDS011;7545;52.092;7.006;2023-09-18T07:19:21;4.05;;;2.95;;
14907;SDS011;7545;52.092;7.006;2023-09-18T07:21:47;8.60;;;3.22;;
14907;SDS011;7545;52.092;7.006;2023-09-18T07:24:12;5.13;;;3.17;;
14907;SDS011;7545;52.092;7.006;2023-09-18T07:26:42;5.63;;;4.10;;
14907;SDS011;7545;52.092;7.006;2023-09-18T07:29:11;6.43;;;3.92;;
14907;SDS011;7545;52.092;7.006;2023-09-18T07:31:38;6.18;;;3.40;;
14907;SDS011;7545;52.092;7.006;2023-09-18T07:34:05;5.15;;;3.55;;
14907;SDS011;7545;52.092;7.006;2023-09-18T07:36:31;5.10;;;3.30;;
14907;SDS011;7545;52.092;7.006;2023-09-18T07:38:56;5.45;;;3.17;;
14907;SDS011;7545;52.092;7.006;2023-09-18T07:41:22;7.50;;;2.30;;
14907;SDS011;7545;52.092;7.006;2023-09-18T07:43:48;5.35;;;2.50;;
14907;SDS011;7545;52.092;7.006;2023-09-18T07:46:14;5.45;;;2.83;;
14907;SDS011;7545;52.092;7.006;2023-09-18T07:48:39;5.93;;;2.78;;
14907;SDS011;7545;52.092;7.006;2023-09-18T07:51:05;5.85;;;2.47;;
14907;SDS011;7545;52.092;7.006;2023-09-18T07:53:31;4.25;;;2.30;;
14907;SDS011;7545;52.092;7.006;2023-09-18T07:55:57;6.38;;;2.55;;
14907;SDS011;7545;52.092;7.006;2023-09-18T07:58:24;3.03;;;2.17;;
14907;SDS011;7545;52.092;7.006;2023-09-18T08:00:53;4.38;;;2.33;;
14907;SDS011;7545;52.092;7.006;2023-09-18T08:03:22;5.30;;;1.55;;
14907;SDS011;7545;52.092;7.006;2023-09-18T08:05:54;3.92;;;1.75;;
14907;SDS011;7545;52.092;7.006;2023-09-18T08:08:20;4.40;;;1.88;;
14907;SDS011;7545;52.092;7.006;2023-09-18T08:10:48;3.22;;;1.77;;
14907;SDS011;7545;52.092;7.006;2023-09-18T08:13:15;4.18;;;1.65;;
14907;SDS011;7545;52.092;7.006;2023-09-18T08:15:41;4.72;;;2.20;;
14907;SDS011;7545;52.092;7.006;2023-09-18T08:18:08;7.03;;;1.95;;
14907;SDS011;7545;52.092;7.006;2023-09-18T08:20:36;4.45;;;1.70;;
14907;SDS011;7545;52.092;7.006;2023-09-18T08:23:05;2.67;;;1.58;;
14907;SDS011;7545;52.092;7.006;2023-09-18T08:25:31;4.40;;;2.00;;
14907;SDS011;7545;52.092;7.006;2023-09-18T08:27:57;2.38;;;1.42;;
14907;SDS011;7545;52.092;7.006;2023-09-18T08:30:23;4.35;;;1.70;;
14907;SDS011;7545;52.092;7.006;2023-09-18T08:32:48;7.97;;;1.85;;
14907;SDS011;7545;52.092;7.006;2023-09-18T08:35:14;3.78;;;1.67;;
14907;SDS011;7545;52.092;7.006;2023-09-18T08:37:40;6.38;;;1.58;;
14907;SDS011;7545;52.092;7.006;2023-09-18T08:40:07;3.70;;;1.27;;
14907;SDS011;7545;52.092;7.006;2023-09-18T08:42:39;2.30;;;1.40;;
14907;SDS011;7545;52.092;7.006;2023-09-18T08:45:09;2.22;;;1.52;;
14907;SDS011;7545;52.092;7.006;2023-09-18T08:47:37;3.63;;;1.38;;
14907;SDS011;7545;52.092;7.006;2023-09-18T08:50:08;2.63;;;1.55;;
14907;SDS011;7545;52.092;7.006;2023-09-18T08:52:35;6.25;;;1.52;;
14907;SDS011;7545;52.092;7.006;2023-09-18T08:55:02;4.50;;;1.55;;
14907;SDS011;7545;52.092;7.006;2023-09-18T08:57:29;3.03;;;1.67;;
14907;SDS011;7545;52.092;7.006;2023-09-18T08:59:57;5.25;;;1.50;;
14907;SDS011;7545;52.092;7.006;2023-09-18T09:02:26;2.67;;;1.73;;
14907;SDS011;7545;52.092;7.006;2023-09-18T09:04:51;5.60;;;2.45;;
14907;SDS011;7545;52.092;7.006;2023-09-18T09:07:17;2.10;;;1.20;;
14907;SDS011;7545;52.092;7.006;2023-09-18T09:09:43;2.40;;;1.55;;
14907;SDS011;7545;52.092;7.006;2023-09-18T09:12:09;2.50;;;1.30;;
14907;SDS011;7545;52.092;7.006;2023-09-18T09:14:34;4.85;;;1.45;;
14907;SDS011;7545;52.092;7.006;2023-09-18T09:17:03;5.75;;;1.58;;
14907;SDS011;7545;52.092;7.006;2023-09-18T09:19:32;1.98;;;1.00;;
14907;SDS011;7545;52.092;7.006;2023-09-18T09:22:04;2.13;;;1.27;;
14907;SDS011;7545;52.092;7.006;2023-09-18T09:24:42;1.98;;;0.90;;
14907;SDS011;7545;52.092;7.006;2023-09-18T09:27:09;3.55;;;1.50;;
14907;SDS011;7545;52.092;7.006;2023-09-18T09:29:35;3.00;;;1.35;;
14907;SDS011;7545;52.092;7.006;2023-09-18T09:34:41;3.15;;;1.20;;
14907;SDS011;7545;52.092;7.006;2023-09-18T09:37:08;3.03;;;1.50;;
14907;SDS011;7545;52.092;7.006;2023-09-18T09:39:34;2.08;;;1.20;;
14907;SDS011;7545;52.092;7.006;2023-09-18T09:42:00;2.10;;;1.25;;
14907;SDS011;7545;52.092;7.006;2023-09-18T09:44:29;1.77;;;1.15;;
14907;SDS011;7545;52.092;7.006;2023-09-18T09:46:57;6.25;;;2.75;;
14907;SDS011;7545;52.092;7.006;2023-09-18T09:49:24;2.42;;;1.05;;
14907;SDS011;7545;52.092;7.006;2023-09-18T09:51:53;4.07;;;1.52;;
14907;SDS011;7545;52.092;7.006;2023-09-18T09:54:31;2.25;;;1.58;;
14907;SDS011;7545;52.092;7.006;2023-09-18T09:57:03;2.30;;;1.40;;
14907;SDS011;7545;52.092;7.006;2023-09-18T09:59:29;3.20;;;1.23;;
14907;SDS011;7545;52.092;7.006;2023-09-18T10:01:58;1.33;;;1.08;;
14907;SDS011;7545;52.092;7.006;2023-09-18T10:04:23;1.30;;;1.08;;
14907;SDS011;7545;52.092;7.006;2023-09-18T10:06:52;3.53;;;2.03;;
14907;SDS011;7545;52.092;7.006;2023-09-18T10:09:23;2.63;;;0.90;;
14907;SDS011;7545;52.092;7.006;2023-09-18T10:11:54;1.33;;;0.80;;
14907;SDS011;7545;52.092;7.006;2023-09-18T10:14:26;2.40;;;0.90;;
14907;SDS011;7545;52.092;7.006;2023-09-18T10:16:56;1.13;;;0.90;;
14907;SDS011;7545;52.092;7.006;2023-09-18T10:24:47;2.75;;;1.92;;
14907;SDS011;7545;52.092;7.006;2023-09-18T10:27:15;2.17;;;1.20;;
14907;SDS011;7545;52.092;7.006;2023-09-18T10:29:43;2.78;;;0.93;;
14907;SDS011;7545;52.092;7.006;2023-09-18T10:32:13;1.88;;;0.90;;
14907;SDS011;7545;52.092;7.006;2023-09-18T10:34:39;2.70;;;1.08;;
14907;SDS011;7545;52.092;7.006;2023-09-18T10:37:07;2.22;;;1.40;;
14907;SDS011;7545;52.092;7.006;2023-09-18T10:39:35;2.05;;;0.98;;
14907;SDS011;7545;52.092;7.006;2023-09-18T10:42:02;1.65;;;1.00;;
14907;SDS011;7545;52.092;7.006;2023-09-18T10:44:33;3.30;;;1.10;;
14907;SDS011;7545;52.092;7.006;2023-09-18T10:47:00;4.40;;;1.20;;
14907;SDS011;7545;52.092;7.006;2023-09-18T10:49:27;1.38;;;0.93;;
14907;SDS011;7545;52.092;7.006;2023-09-18T10:51:54;1.42;;;0.70;;
14907;SDS011;7545;52.092;7.006;2023-09-18T10:54:21;1.85;;;0.90;;
14907;SDS011;7545;52.092;7.006;2023-09-18T10:56:51;1.48;;;1.20;;
14907;SDS011;7545;52.092;7.006;2023-09-18T10:59:17;1.95;;;0.98;;
14907;SDS011;7545;52.092;7.006;2023-09-18T11:01:44;2.22;;;1.25;;
14907;SDS011;7545;52.092;7.006;2023-09-18T11:04:11;2.63;;;1.00;;
14907;SDS011;7545;52.092;7.006;2023-09-18T11:09:27;1.95;;;1.10;;
14907;SDS011;7545;52.092;7.006;2023-09-18T11:11:54;2.20;;;1.30;;
14907;SDS011;7545;52.092;7.006;2023-09-18T11:17:28;4.05;;;1.10;;
14907;SDS011;7545;52.092;7.006;2023-09-18T11:20:05;3.05;;;1.13;;
14907;SDS011;7545;52.092;7.006;2023-09-18T11:22:37;2.75;;;1.23;;
14907;SDS011;7545;52.092;7.006;2023-09-18T11:27:59;4.88;;;1.48;;
14907;SDS011;7545;52.092;7.006;2023-09-18T11:30:27;2.60;;;1.00;;
14907;SDS011;7545;52.092;7.006;2023-09-18T11:32:53;4.10;;;1.40;;
14907;SDS011;7545;52.092;7.006;2023-09-18T11:35:22;4.90;;;1.05;;
14907;SDS011;7545;52.092;7.006;2023-09-18T11:38:11;1.30;;;1.00;;
14907;SDS011;7545;52.092;7.006;2023-09-18T11:40:37;3.92;;;1.27;;
14907;SDS011;7545;52.092;7.006;2023-09-18T11:43:25;4.25;;;1.13;;
14907;SDS011;7545;52.092;7.006;2023-09-18T11:45:53;1.70;;;1.33;;
14907;SDS011;7545;52.092;7.006;2023-09-18T11:48:21;1.92;;;1.27;;
14907;SDS011;7545;52.092;7.006;2023-09-18T11:50:49;3.55;;;1.40;;
14907;SDS011;7545;52.092;7.006;2023-09-18T11:53:17;4.82;;;2.05;;
14907;SDS011;7545;52.092;7.006;2023-09-18T11:55:44;2.05;;;1.27;;
14907;SDS011;7545;52.092;7.006;2023-09-18T11:58:10;2.15;;;1.30;;
14907;SDS011;7545;52.092;7.006;2023-09-18T12:00:35;3.35;;;1.30;;
14907;SDS011;7545;52.092;7.006;2023-09-18T12:03:43;7.68;;;1.42;;
14907;SDS011;7545;52.092;7.006;2023-09-18T12:06:02;5.53;;;1.40;;
14907;SDS011;7545;52.092;7.006;2023-09-18T12:08:30;2.35;;;1.38;;
14907;SDS011;7545;52.092;7.006;2023-09-18T12:10:57;2.67;;;1.92;;
14907;SDS011;7545;52.092;7.006;2023-09-18T12:13:26;3.10;;;2.00;;
14907;SDS011;7545;52.092;7.006;2023-09-18T12:15:59;1.73;;;1.40;;
14907;SDS011;7545;52.092;7.006;2023-09-18T12:18:26;4.53;;;1.30;;
14907;SDS011;7545;52.092;7.006;2023-09-18T12:20:55;5.28;;;1.90;;
14907;SDS011;7545;52.092;7.006;2023-09-18T12:23:23;4.45;;;1.73;;
14907;SDS011;7545;52.092;7.006;2023-09-18T12:25:50;1.83;;;1.30;;
14907;SDS011;7545;52.092;7.006;2023-09-18T12:28:22;3.92;;;1.75;;
14907;SDS011;7545;52.092;7.006;2023-09-18T12:30:47;2.75;;;2.45;;
14907;SDS011;7545;52.092;7.006;2023-09-18T12:33:15;3.10;;;2.25;;
14907;SDS011;7545;52.092;7.006;2023-09-18T12:35:42;3.40;;;1.40;;
14907;SDS011;7545;52.092;7.006;2023-09-18T12:38:15;2.13;;;1.33;;
14907;SDS011;7545;52.092;7.006;2023-09-18T12:40:43;2.92;;;1.40;;
14907;SDS011;7545;52.092;7.006;2023-09-18T12:43:11;2.75;;;1.48;;
14907;SDS011;7545;52.092;7.006;2023-09-18T12:45:39;3.78;;;1.70;;
14907;SDS011;7545;52.092;7.006;2023-09-18T12:48:05;4.43;;;1.75;;
14907;SDS011;7545;52.092;7.006;2023-09-18T12:50:31;4.10;;;1.55;;
14907;SDS011;7545;52.092;7.006;2023-09-18T12:53:06;2.78;;;1.45;;
14907;SDS011;7545;52.092;7.006;2023-09-18T12:55:37;2.35;;;1.25;;
14907;SDS011;7545;52.092;7.006;2023-09-18T12:58:02;3.33;;;1.50;;
14907;SDS011;7545;52.092;7.006;2023-09-18T13:00:34;5.57;;;1.50;;
14907;SDS011;7545;52.092;7.006;2023-09-18T13:03:01;2.72;;;1.63;;
14907;SDS011;7545;52.092;7.006;2023-09-18T13:05:30;2.17;;;1.73;;
14907;SDS011;7545;52.092;7.006;2023-09-18T13:08:03;3.63;;;1.55;;
14907;SDS011;7545;52.092;7.006;2023-09-18T13:10:40;1.83;;;1.20;;
14907;SDS011;7545;52.092;7.006;2023-09-18T13:13:07;3.40;;;1.50;;
14907;SDS011;7545;52.092;7.006;2023-09-18T13:15:47;6.82;;;1.52;;
14907;SDS011;7545;52.092;7.006;2023-09-18T13:18:14;2.58;;;1.48;;
14907;SDS011;7545;52.092;7.006;2023-09-18T13:20:40;2.67;;;1.70;;
14907;SDS011;7545;52.092;7.006;2023-09-18T13:23:07;4.18;;;1.60;;
14907;SDS011;7545;52.092;7.006;2023-09-18T13:25:34;2.05;;;1.58;;
14907;SDS011;7545;52.092;7.006;2023-09-18T13:28:09;2.25;;;1.20;;
14907;SDS011;7545;52.092;7.006;2023-09-18T13:30:36;2.08;;;1.15;;
14907;SDS011;7545;52.092;7.006;2023-09-18T13:35:31;7.25;;;1.50;;
14907;SDS011;7545;52.092;7.006;2023-09-18T13:37:57;4.80;;;1.42;;
14907;SDS011;7545;52.092;7.006;2023-09-18T13:40:23;3.42;;;1.60;;
14907;SDS011;7545;52.092;7.006;2023-09-18T13:42:48;2.42;;;1.58;;
14907;SDS011;7545;52.092;7.006;2023-09-18T13:45:14;1.83;;;1.50;;
14907;SDS011;7545;52.092;7.006;2023-09-18T13:47:42;3.88;;;2.03;;
14907;SDS011;7545;52.092;7.006;2023-09-18T13:50:08;2.20;;;1.60;;
14907;SDS011;7545;52.092;7.006;2023-09-18T13:52:35;3.03;;;1.63;;
14907;SDS011;7545;52.092;7.006;2023-09-18T13:55:02;3.20;;;1.48;;
14907;SDS011;7545;52.092;7.006;2023-09-18T13:57:30;2.65;;;1.90;;
14907;SDS011;7545;52.092;7.006;2023-09-18T14:00:00;1.48;;;1.38;;
14907;SDS011;7545;52.092;7.006;2023-09-18T14:02:30;2.22;;;1.10;;
14907;SDS011;7545;52.092;7.006;2023-09-18T14:04:58;3.50;;;1.40;;
14907;SDS011;7545;52.092;7.006;2023-09-18T14:07:24;2.53;;;1.60;;
14907;SDS011;7545;52.092;7.006;2023-09-18T14:09:49;1.67;;;1.20;;
14907;SDS011;7545;52.092;7.006;2023-09-18T14:12:15;3.60;;;1.33;;
14907;SDS011;7545;52.092;7.006;2023-09-18T14:14:41;2.13;;;1.40;;
14907;SDS011;7545;52.092;7.006;2023-09-18T14:17:08;1.70;;;1.48;;
14907;SDS011;7545;52.092;7.006;2023-09-18T14:19:34;8.75;;;1.70;;
14907;SDS011;7545;52.092;7.006;2023-09-18T14:22:00;1.50;;;1.23;;
14907;SDS011;7545;52.092;7.006;2023-09-18T14:24:30;2.25;;;1.40;;
14907;SDS011;7545;52.092;7.006;2023-09-18T14:27:05;2.75;;;1.27;;
14907;SDS011;7545;52.092;7.006;2023-09-18T14:29:36;3.28;;;1.40;;
14907;SDS011;7545;52.092;7.006;2023-09-18T14:32:02;5.03;;;1.50;;
14907;SDS011;7545;52.092;7.006;2023-09-18T14:34:29;4.53;;;1.40;;
14907;SDS011;7545;52.092;7.006;2023-09-18T14:36:55;2.13;;;1.45;;
14907;SDS011;7545;52.092;7.006;2023-09-18T14:39:21;5.05;;;1.63;;
14907;SDS011;7545;52.092;7.006;2023-09-18T14:41:47;1.75;;;1.33;;
14907;SDS011;7545;52.092;7.006;2023-09-18T14:44:13;2.50;;;1.23;;
14907;SDS011;7545;52.092;7.006;2023-09-18T14:46:40;3.72;;;1.40;;
14907;SDS011;7545;52.092;7.006;2023-09-18T14:49:05;2.13;;;1.30;;
14907;SDS011;7545;52.092;7.006;2023-09-18T14:51:35;1.92;;;1.05;;
14907;SDS011;7545;52.092;7.006;2023-09-18T14:54:01;2.70;;;1.23;;
14907;SDS011;7545;52.092;7.006;2023-09-18T14:56:29;3.88;;;1.30;;
14907;SDS011;7545;52.092;7.006;2023-09-18T14:58:55;3.17;;;1.27;;
14907;SDS011;7545;52.092;7.006;2023-09-18T15:01:21;4.85;;;1.67;;
14907;SDS011;7545;52.092;7.006;2023-09-18T15:03:47;2.22;;;1.27;;
14907;SDS011;7545;52.092;7.006;2023-09-18T15:06:17;3.20;;;1.42;;
14907;SDS011;7545;52.092;7.006;2023-09-18T15:08:43;2.65;;;1.38;;
14907;SDS011;7545;52.092;7.006;2023-09-18T15:11:09;5.80;;;1.55;;
14907;SDS011;7545;52.092;7.006;2023-09-18T15:13:36;2.85;;;1.33;;
14907;SDS011;7545;52.092;7.006;2023-09-18T15:16:02;2.10;;;1.40;;
14907;SDS011;7545;52.092;7.006;2023-09-18T15:18:27;4.07;;;1.48;;
14907;SDS011;7545;52.092;7.006;2023-09-18T15:20:53;2.50;;;1.33;;
14907;SDS011;7545;52.092;7.006;2023-09-18T15:23:20;2.47;;;1.20;;
14907;SDS011;7545;52.092;7.006;2023-09-18T15:25:47;2.42;;;1.30;;